sensor_id;sensor_type;location;lat;lon;timestamp;temperature;humidity
30381;DHT22;17169;50.966;11.038;2022-08-01T00:02:12;21.40;96.20
30381;DHT22;17169;50.966;11.038;2022-08-01T00:05:16;21.40;96.20
30381;DHT22;17169;50.966;11.038;2022-08-01T00:08:18;21.40;96.40
30381;DHT22;17169;50.966;11.038;2022-08-01T00:11:21;21.40;96.70
30381;DHT22;17169;50.966;11.038;2022-08-01T00:14:23;21.50;97.00
30381;DHT22;17169;50.966;11.038;2022-08-01T00:17:25;21.50;97.40
30381;DHT22;17169;50.966;11.038;2022-08-01T00:20:29;21.50;97.80
30381;DHT22;17169;50.966;11.038;2022-08-01T00:23:32;21.50;98.30
30381;DHT22;17169;50.966;11.038;2022-08-01T00:26:34;21.50;98.40
30381;DHT22;17169;50.966;11.038;2022-08-01T00:29:37;21.60;98.80
30381;DHT22;17169;50.966;11.038;2022-08-01T00:32:39;21.60;99.20
30381;DHT22;17169;50.966;11.038;2022-08-01T00:35:43;21.60;99.60
30381;DHT22;17169;50.966;11.038;2022-08-01T00:38:45;21.60;99.90
30381;DHT22;17169;50.966;11.038;2022-08-01T00:41:48;21.60;99.90
30381;DHT22;17169;50.966;11.038;2022-08-01T00:44:50;21.50;99.90
30381;DHT22;17169;50.966;11.038;2022-08-01T00:47:52;21.50;99.90
30381;DHT22;17169;50.966;11.038;2022-08-01T00:50:56;21.50;99.90
30381;DHT22;17169;50.966;11.038;2022-08-01T00:53:59;21.40;99.90
30381;DHT22;17169;50.966;11.038;2022-08-01T00:57:03;21.30;99.90
30381;DHT22;17169;50.966;11.038;2022-08-01T01:00:07;21.20;99.90
30381;DHT22;17169;50.966;11.038;2022-08-01T01:03:09;21.10;99.90
30381;DHT22;17169;50.966;11.038;2022-08-01T01:06:23;21.00;99.90
30381;DHT22;17169;50.966;11.038;2022-08-01T01:09:35;21.00;99.90
30381;DHT22;17169;50.966;11.038;2022-08-01T01:12:44;21.10;99.90
30381;DHT22;17169;50.966;11.038;2022-08-01T01:15:55;21.00;99.90
30381;DHT22;17169;50.966;11.038;2022-08-01T01:19:01;21.00;99.90
30381;DHT22;17169;50.966;11.038;2022-08-01T01:22:22;21.00;99.90
30381;DHT22;17169;50.966;11.038;2022-08-01T01:25:39;21.00;99.90
30381;DHT22;17169;50.966;11.038;2022-08-01T01:28:56;21.00;99.90
30381;DHT22;17169;50.966;11.038;2022-08-01T01:32:04;20.90;99.90
30381;DHT22;17169;50.966;11.038;2022-08-01T01:35:13;20.90;99.90
30381;DHT22;17169;50.966;11.038;2022-08-01T01:38:18;21.00;99.90
30381;DHT22;17169;50.966;11.038;2022-08-01T01:41:23;20.90;99.90
30381;DHT22;17169;50.966;11.038;2022-08-01T01:44:27;20.90;99.90
30381;DHT22;17169;50.966;11.038;2022-08-01T01:47:31;20.90;99.90
30381;DHT22;17169;50.966;11.038;2022-08-01T01:50:35;20.90;99.90
30381;DHT22;17169;50.966;11.038;2022-08-01T01:53:38;20.90;99.90
30381;DHT22;17169;50.966;11.038;2022-08-01T01:56:42;20.80;99.90
30381;DHT22;17169;50.966;11.038;2022-08-01T01:59:53;20.80;99.90
30381;DHT22;17169;50.966;11.038;2022-08-01T02:02:55;20.90;99.90
30381;DHT22;17169;50.966;11.038;2022-08-01T02:05:59;20.90;99.90
30381;DHT22;17169;50.966;11.038;2022-08-01T02:09:03;20.80;99.90
30381;DHT22;17169;50.966;11.038;2022-08-01T02:12:07;20.80;99.90
30381;DHT22;17169;50.966;11.038;2022-08-01T02:15:13;20.80;99.90
30381;DHT22;17169;50.966;11.038;2022-08-01T02:18:16;20.80;99.90
30381;DHT22;17169;50.966;11.038;2022-08-01T02:21:25;20.80;99.90
30381;DHT22;17169;50.966;11.038;2022-08-01T02:24:35;20.80;99.90
30381;DHT22;17169;50.966;11.038;2022-08-01T02:27:42;20.70;99.90
30381;DHT22;17169;50.966;11.038;2022-08-01T02:30:48;20.70;99.90
30381;DHT22;17169;50.966;11.038;2022-08-01T02:33:57;20.70;99.90
30381;DHT22;17169;50.966;11.038;2022-08-01T02:37:01;20.80;99.90
30381;DHT22;17169;50.966;11.038;2022-08-01T02:40:07;20.80;99.90
30381;DHT22;17169;50.966;11.038;2022-08-01T02:43:12;20.80;99.90
30381;DHT22;17169;50.966;11.038;2022-08-01T02:46:22;20.80;99.90
30381;DHT22;17169;50.966;11.038;2022-08-01T02:49:27;20.80;99.90
30381;DHT22;17169;50.966;11.038;2022-08-01T02:52:31;20.80;99.90
30381;DHT22;17169;50.966;11.038;2022-08-01T02:55:35;20.80;99.90
30381;DHT22;17169;50.966;11.038;2022-08-01T02:58:39;20.80;99.90
30381;DHT22;17169;50.966;11.038;2022-08-01T03:01:45;20.80;99.90
30381;DHT22;17169;50.966;11.038;2022-08-01T03:04:48;20.80;99.90
30381;DHT22;17169;50.966;11.038;2022-08-01T03:07:55;20.80;99.90
30381;DHT22;17169;50.966;11.038;2022-08-01T03:10:59;20.70;99.90
30381;DHT22;17169;50.966;11.038;2022-08-01T03:14:06;20.70;99.90
30381;DHT22;17169;50.966;11.038;2022-08-01T03:17:11;20.60;99.90
30381;DHT22;17169;50.966;11.038;2022-08-01T03:20:15;20.60;99.90
30381;DHT22;17169;50.966;11.038;2022-08-01T03:23:19;20.60;99.90
30381;DHT22;17169;50.966;11.038;2022-08-01T03:26:25;20.60;99.90
30381;DHT22;17169;50.966;11.038;2022-08-01T03:29:30;20.60;99.90
30381;DHT22;17169;50.966;11.038;2022-08-01T03:32:35;20.60;99.90
30381;DHT22;17169;50.966;11.038;2022-08-01T03:35:40;20.60;99.90
30381;DHT22;17169;50.966;11.038;2022-08-01T03:38:46;20.60;99.90
30381;DHT22;17169;50.966;11.038;2022-08-01T03:42:01;20.60;99.90
30381;DHT22;17169;50.966;11.038;2022-08-01T03:45:11;20.60;99.90
30381;DHT22;17169;50.966;11.038;2022-08-01T03:48:22;20.60;99.90
30381;DHT22;17169;50.966;11.038;2022-08-01T03:51:27;20.70;99.90
30381;DHT22;17169;50.966;11.038;2022-08-01T03:54:34;20.60;99.90
30381;DHT22;17169;50.966;11.038;2022-08-01T03:57:38;20.60;99.90
30381;DHT22;17169;50.966;11.038;2022-08-01T04:00:41;20.70;99.90
30381;DHT22;17169;50.966;11.038;2022-08-01T04:03:45;20.60;99.90
30381;DHT22;17169;50.966;11.038;2022-08-01T04:06:47;20.60;99.90
30381;DHT22;17169;50.966;11.038;2022-08-01T04:09:52;20.50;99.90
30381;DHT22;17169;50.966;11.038;2022-08-01T04:12:55;20.50;99.90
30381;DHT22;17169;50.966;11.038;2022-08-01T04:15:57;20.60;99.90
30381;DHT22;17169;50.966;11.038;2022-08-01T04:19:01;20.50;99.90
30381;DHT22;17169;50.966;11.038;2022-08-01T04:22:04;20.50;99.90
30381;DHT22;17169;50.966;11.038;2022-08-01T04:25:12;20.40;99.90
30381;DHT22;17169;50.966;11.038;2022-08-01T04:28:16;20.40;99.90
30381;DHT22;17169;50.966;11.038;2022-08-01T04:31:22;20.40;99.90
30381;DHT22;17169;50.966;11.038;2022-08-01T04:34:30;20.40;99.90
30381;DHT22;17169;50.966;11.038;2022-08-01T04:37:35;20.40;99.90
30381;DHT22;17169;50.966;11.038;2022-08-01T04:40:40;20.50;99.90
30381;DHT22;17169;50.966;11.038;2022-08-01T04:43:43;20.40;99.90
30381;DHT22;17169;50.966;11.038;2022-08-01T04:46:45;20.40;99.90
30381;DHT22;17169;50.966;11.038;2022-08-01T04:49:51;20.50;99.90
30381;DHT22;17169;50.966;11.038;2022-08-01T04:52:53;20.50;99.90
30381;DHT22;17169;50.966;11.038;2022-08-01T04:55:56;20.50;99.90
30381;DHT22;17169;50.966;11.038;2022-08-01T04:58:59;20.50;99.90
30381;DHT22;17169;50.966;11.038;2022-08-01T05:02:19;20.50;99.90
30381;DHT22;17169;50.966;11.038;2022-08-01T05:05:23;20.50;99.90
30381;DHT22;17169;50.966;11.038;2022-08-01T05:08:27;20.60;99.90
30381;DHT22;17169;50.966;11.038;2022-08-01T05:11:29;20.70;99.90
30381;DHT22;17169;50.966;11.038;2022-08-01T05:14:32;20.70;99.90
30381;DHT22;17169;50.966;11.038;2022-08-01T05:17:35;20.70;99.90
30381;DHT22;17169;50.966;11.038;2022-08-01T05:20:39;20.80;99.90
30381;DHT22;17169;50.966;11.038;2022-08-01T05:23:42;20.90;99.90
30381;DHT22;17169;50.966;11.038;2022-08-01T05:26:45;21.00;99.90
30381;DHT22;17169;50.966;11.038;2022-08-01T05:29:47;21.10;99.90
30381;DHT22;17169;50.966;11.038;2022-08-01T05:32:49;21.20;99.90
30381;DHT22;17169;50.966;11.038;2022-08-01T05:35:53;21.20;99.90
30381;DHT22;17169;50.966;11.038;2022-08-01T05:38:55;21.20;99.90
30381;DHT22;17169;50.966;11.038;2022-08-01T05:41:58;21.30;99.90
30381;DHT22;17169;50.966;11.038;2022-08-01T05:45:00;21.30;99.90
30381;DHT22;17169;50.966;11.038;2022-08-01T05:48:03;21.30;99.90
30381;DHT22;17169;50.966;11.038;2022-08-01T05:51:07;21.40;99.90
30381;DHT22;17169;50.966;11.038;2022-08-01T05:54:09;21.50;99.90
30381;DHT22;17169;50.966;11.038;2022-08-01T05:57:12;21.60;99.90
30381;DHT22;17169;50.966;11.038;2022-08-01T06:00:14;21.70;99.90
30381;DHT22;17169;50.966;11.038;2022-08-01T06:03:17;21.80;99.90
30381;DHT22;17169;50.966;11.038;2022-08-01T06:06:21;21.80;99.90
30381;DHT22;17169;50.966;11.038;2022-08-01T06:09:23;21.80;99.90
30381;DHT22;17169;50.966;11.038;2022-08-01T06:12:26;21.80;99.90
30381;DHT22;17169;50.966;11.038;2022-08-01T06:15:28;21.80;99.90
30381;DHT22;17169;50.966;11.038;2022-08-01T06:18:31;21.80;99.90
30381;DHT22;17169;50.966;11.038;2022-08-01T06:21:34;21.90;99.90
30381;DHT22;17169;50.966;11.038;2022-08-01T06:24:37;21.90;99.90
30381;DHT22;17169;50.966;11.038;2022-08-01T06:27:39;21.90;99.90
30381;DHT22;17169;50.966;11.038;2022-08-01T06:30:42;21.90;99.90
30381;DHT22;17169;50.966;11.038;2022-08-01T06:33:44;22.00;99.90
30381;DHT22;17169;50.966;11.038;2022-08-01T06:36:48;22.00;99.90
30381;DHT22;17169;50.966;11.038;2022-08-01T06:39:51;22.00;99.90
30381;DHT22;17169;50.966;11.038;2022-08-01T06:42:54;22.00;99.90
30381;DHT22;17169;50.966;11.038;2022-08-01T06:45:56;22.00;99.90
30381;DHT22;17169;50.966;11.038;2022-08-01T06:48:58;22.00;99.90
30381;DHT22;17169;50.966;11.038;2022-08-01T06:52:03;21.90;99.90
30381;DHT22;17169;50.966;11.038;2022-08-01T06:55:06;21.70;99.90
30381;DHT22;17169;50.966;11.038;2022-08-01T06:58:09;21.60;99.90
30381;DHT22;17169;50.966;11.038;2022-08-01T07:01:11;21.40;99.90
30381;DHT22;17169;50.966;11.038;2022-08-01T07:04:13;21.30;99.90
30381;DHT22;17169;50.966;11.038;2022-08-01T07:07:17;21.20;99.90
30381;DHT22;17169;50.966;11.038;2022-08-01T07:10:20;21.30;99.90
30381;DHT22;17169;50.966;11.038;2022-08-01T07:13:22;21.30;99.90
30381;DHT22;17169;50.966;11.038;2022-08-01T07:16:25;21.30;99.90
30381;DHT22;17169;50.966;11.038;2022-08-01T07:19:28;21.40;99.90
30381;DHT22;17169;50.966;11.038;2022-08-01T07:22:32;21.40;99.90
30381;DHT22;17169;50.966;11.038;2022-08-01T07:25:34;21.60;99.90
30381;DHT22;17169;50.966;11.038;2022-08-01T07:28:36;21.80;99.90
30381;DHT22;17169;50.966;11.038;2022-08-01T07:31:39;22.00;99.90
30381;DHT22;17169;50.966;11.038;2022-08-01T07:34:42;22.20;99.90
30381;DHT22;17169;50.966;11.038;2022-08-01T07:37:46;22.20;99.90
30381;DHT22;17169;50.966;11.038;2022-08-01T07:40:48;22.10;99.90
30381;DHT22;17169;50.966;11.038;2022-08-01T07:43:50;22.20;99.90
30381;DHT22;17169;50.966;11.038;2022-08-01T07:46:53;22.10;99.90
30381;DHT22;17169;50.966;11.038;2022-08-01T07:49:59;22.10;99.90
30381;DHT22;17169;50.966;11.038;2022-08-01T07:53:03;22.10;99.90
30381;DHT22;17169;50.966;11.038;2022-08-01T07:56:05;22.10;99.90
30381;DHT22;17169;50.966;11.038;2022-08-01T07:59:08;22.20;99.90
30381;DHT22;17169;50.966;11.038;2022-08-01T08:02:18;22.20;99.90
30381;DHT22;17169;50.966;11.038;2022-08-01T08:05:21;22.40;99.90
30381;DHT22;17169;50.966;11.038;2022-08-01T08:08:23;22.60;99.90
30381;DHT22;17169;50.966;11.038;2022-08-01T08:11:26;22.60;99.90
30381;DHT22;17169;50.966;11.038;2022-08-01T08:14:28;22.70;99.90
30381;DHT22;17169;50.966;11.038;2022-08-01T08:17:32;22.80;99.90
30381;DHT22;17169;50.966;11.038;2022-08-01T08:20:34;22.90;99.90
30381;DHT22;17169;50.966;11.038;2022-08-01T08:23:37;23.00;99.90
30381;DHT22;17169;50.966;11.038;2022-08-01T08:26:58;23.30;99.90
30381;DHT22;17169;50.966;11.038;2022-08-01T08:30:00;23.40;99.90
30381;DHT22;17169;50.966;11.038;2022-08-01T08:33:04;23.50;99.90
30381;DHT22;17169;50.966;11.038;2022-08-01T08:36:06;23.50;99.90
30381;DHT22;17169;50.966;11.038;2022-08-01T08:39:09;23.50;99.90
30381;DHT22;17169;50.966;11.038;2022-08-01T08:42:12;23.50;99.90
30381;DHT22;17169;50.966;11.038;2022-08-01T08:45:14;23.40;99.90
30381;DHT22;17169;50.966;11.038;2022-08-01T08:48:18;23.30;99.90
30381;DHT22;17169;50.966;11.038;2022-08-01T08:51:21;23.30;99.90
30381;DHT22;17169;50.966;11.038;2022-08-01T08:54:26;23.20;99.90
30381;DHT22;17169;50.966;11.038;2022-08-01T08:57:29;23.20;99.90
30381;DHT22;17169;50.966;11.038;2022-08-01T09:00:32;23.10;99.90
30381;DHT22;17169;50.966;11.038;2022-08-01T09:03:38;22.90;99.90
30381;DHT22;17169;50.966;11.038;2022-08-01T09:06:41;22.90;99.90
30381;DHT22;17169;50.966;11.038;2022-08-01T09:09:43;22.90;99.90
30381;DHT22;17169;50.966;11.038;2022-08-01T09:13:07;22.80;99.90
30381;DHT22;17169;50.966;11.038;2022-08-01T09:16:16;22.90;99.90
30381;DHT22;17169;50.966;11.038;2022-08-01T09:19:20;22.90;99.90
30381;DHT22;17169;50.966;11.038;2022-08-01T09:22:24;23.00;99.90
30381;DHT22;17169;50.966;11.038;2022-08-01T09:25:26;23.10;99.90
30381;DHT22;17169;50.966;11.038;2022-08-01T09:28:33;23.20;99.90
30381;DHT22;17169;50.966;11.038;2022-08-01T09:31:45;23.40;99.90
30381;DHT22;17169;50.966;11.038;2022-08-01T09:34:49;23.50;99.90
30381;DHT22;17169;50.966;11.038;2022-08-01T09:37:51;23.60;99.90
30381;DHT22;17169;50.966;11.038;2022-08-01T09:40:54;23.70;99.90
30381;DHT22;17169;50.966;11.038;2022-08-01T09:43:57;23.70;99.90
30381;DHT22;17169;50.966;11.038;2022-08-01T09:47:00;23.60;99.90
30381;DHT22;17169;50.966;11.038;2022-08-01T09:50:04;23.60;99.90
30381;DHT22;17169;50.966;11.038;2022-08-01T09:53:08;23.70;99.90
30381;DHT22;17169;50.966;11.038;2022-08-01T09:56:11;23.80;99.90
30381;DHT22;17169;50.966;11.038;2022-08-01T09:59:13;24.10;99.90
30381;DHT22;17169;50.966;11.038;2022-08-01T10:02:29;24.30;99.90
30381;DHT22;17169;50.966;11.038;2022-08-01T10:05:34;24.40;99.40
30381;DHT22;17169;50.966;11.038;2022-08-01T10:08:45;24.60;99.00
30381;DHT22;17169;50.966;11.038;2022-08-01T10:11:48;24.70;99.00
30381;DHT22;17169;50.966;11.038;2022-08-01T10:14:51;24.90;98.70
30381;DHT22;17169;50.966;11.038;2022-08-01T10:17:57;25.00;98.60
30381;DHT22;17169;50.966;11.038;2022-08-01T10:21:03;25.10;97.90
30381;DHT22;17169;50.966;11.038;2022-08-01T10:24:07;25.20;97.80
30381;DHT22;17169;50.966;11.038;2022-08-01T10:27:14;25.30;97.80
30381;DHT22;17169;50.966;11.038;2022-08-01T10:30:17;25.40;97.50
30381;DHT22;17169;50.966;11.038;2022-08-01T10:33:22;25.40;97.40
30381;DHT22;17169;50.966;11.038;2022-08-01T10:36:25;25.40;97.10
30381;DHT22;17169;50.966;11.038;2022-08-01T10:39:28;25.60;97.20
30381;DHT22;17169;50.966;11.038;2022-08-01T10:42:33;25.60;96.10
30381;DHT22;17169;50.966;11.038;2022-08-01T10:45:36;25.50;96.10
30381;DHT22;17169;50.966;11.038;2022-08-01T10:48:44;25.50;96.60
30381;DHT22;17169;50.966;11.038;2022-08-01T10:51:48;25.60;96.00
30381;DHT22;17169;50.966;11.038;2022-08-01T10:55:02;25.50;96.10
30381;DHT22;17169;50.966;11.038;2022-08-01T10:58:07;25.60;96.70
30381;DHT22;17169;50.966;11.038;2022-08-01T11:01:18;25.70;96.40
30381;DHT22;17169;50.966;11.038;2022-08-01T11:04:32;25.80;96.30
30381;DHT22;17169;50.966;11.038;2022-08-01T11:07:43;26.10;95.80
30381;DHT22;17169;50.966;11.038;2022-08-01T11:10:47;26.40;95.70
30381;DHT22;17169;50.966;11.038;2022-08-01T11:14:10;26.40;95.00
30381;DHT22;17169;50.966;11.038;2022-08-01T11:17:33;26.40;94.80
30381;DHT22;17169;50.966;11.038;2022-08-01T11:20:36;26.50;94.20
30381;DHT22;17169;50.966;11.038;2022-08-01T11:23:47;26.60;94.80
30381;DHT22;17169;50.966;11.038;2022-08-01T11:27:15;26.60;94.60
30381;DHT22;17169;50.966;11.038;2022-08-01T11:30:24;26.60;94.00
30381;DHT22;17169;50.966;11.038;2022-08-01T11:33:48;26.70;93.50
30381;DHT22;17169;50.966;11.038;2022-08-01T11:40:32;27.00;93.80
30381;DHT22;17169;50.966;11.038;2022-08-01T11:43:34;27.30;93.60
30381;DHT22;17169;50.966;11.038;2022-08-01T11:46:57;27.40;93.30
30381;DHT22;17169;50.966;11.038;2022-08-01T11:50:01;27.50;92.30
30381;DHT22;17169;50.966;11.038;2022-08-01T11:53:05;27.50;91.80
30381;DHT22;17169;50.966;11.038;2022-08-01T11:56:10;27.40;91.80
30381;DHT22;17169;50.966;11.038;2022-08-01T11:59:13;27.30;92.30
30381;DHT22;17169;50.966;11.038;2022-08-01T12:02:17;27.30;92.30
30381;DHT22;17169;50.966;11.038;2022-08-01T12:05:20;27.40;92.10
30381;DHT22;17169;50.966;11.038;2022-08-01T12:08:25;27.50;92.30
30381;DHT22;17169;50.966;11.038;2022-08-01T12:11:30;27.40;91.70
30381;DHT22;17169;50.966;11.038;2022-08-01T12:14:32;27.40;92.20
30381;DHT22;17169;50.966;11.038;2022-08-01T12:17:37;27.30;91.80
30381;DHT22;17169;50.966;11.038;2022-08-01T12:20:41;27.30;92.10
30381;DHT22;17169;50.966;11.038;2022-08-01T12:23:45;27.10;91.80
30381;DHT22;17169;50.966;11.038;2022-08-01T12:26:48;27.50;92.20
30381;DHT22;17169;50.966;11.038;2022-08-01T12:29:51;27.50;91.40
30381;DHT22;17169;50.966;11.038;2022-08-01T12:32:54;27.50;91.50
30381;DHT22;17169;50.966;11.038;2022-08-01T12:35:56;27.40;91.70
30381;DHT22;17169;50.966;11.038;2022-08-01T12:39:00;27.40;91.70
30381;DHT22;17169;50.966;11.038;2022-08-01T12:42:07;27.40;92.10
30381;DHT22;17169;50.966;11.038;2022-08-01T12:45:15;27.20;91.60
30381;DHT22;17169;50.966;11.038;2022-08-01T12:48:18;27.20;91.80
30381;DHT22;17169;50.966;11.038;2022-08-01T12:51:21;27.50;91.50
30381;DHT22;17169;50.966;11.038;2022-08-01T12:54:23;27.90;90.40
30381;DHT22;17169;50.966;11.038;2022-08-01T12:57:28;28.20;90.10
30381;DHT22;17169;50.966;11.038;2022-08-01T13:00:31;28.60;88.20
30381;DHT22;17169;50.966;11.038;2022-08-01T13:03:34;29.10;90.00
30381;DHT22;17169;50.966;11.038;2022-08-01T13:06:36;29.50;87.30
30381;DHT22;17169;50.966;11.038;2022-08-01T13:09:49;30.00;87.60
30381;DHT22;17169;50.966;11.038;2022-08-01T13:12:54;30.30;84.40
30381;DHT22;17169;50.966;11.038;2022-08-01T13:16:04;30.80;83.90
30381;DHT22;17169;50.966;11.038;2022-08-01T13:19:08;30.90;80.60
30381;DHT22;17169;50.966;11.038;2022-08-01T13:22:10;31.20;81.80
30381;DHT22;17169;50.966;11.038;2022-08-01T13:25:14;31.80;81.00
30381;DHT22;17169;50.966;11.038;2022-08-01T13:28:21;32.10;76.90
30381;DHT22;17169;50.966;11.038;2022-08-01T13:31:32;32.00;77.00
30381;DHT22;17169;50.966;11.038;2022-08-01T13:34:35;32.00;75.40
30381;DHT22;17169;50.966;11.038;2022-08-01T13:37:39;32.30;76.60
30381;DHT22;17169;50.966;11.038;2022-08-01T13:40:42;32.50;72.20
30381;DHT22;17169;50.966;11.038;2022-08-01T13:43:46;33.60;70.90
30381;DHT22;17169;50.966;11.038;2022-08-01T13:46:48;34.90;67.90
30381;DHT22;17169;50.966;11.038;2022-08-01T13:49:51;36.00;66.20
30381;DHT22;17169;50.966;11.038;2022-08-01T13:52:53;37.50;60.10
30381;DHT22;17169;50.966;11.038;2022-08-01T13:55:56;38.80;58.60
30381;DHT22;17169;50.966;11.038;2022-08-01T13:59:00;39.90;53.90
30381;DHT22;17169;50.966;11.038;2022-08-01T14:02:02;40.90;51.80
30381;DHT22;17169;50.966;11.038;2022-08-01T14:05:05;41.00;49.90
30381;DHT22;17169;50.966;11.038;2022-08-01T14:08:08;40.20;48.70
30381;DHT22;17169;50.966;11.038;2022-08-01T14:11:11;39.20;48.00
30381;DHT22;17169;50.966;11.038;2022-08-01T14:14:15;39.40;50.20
30381;DHT22;17169;50.966;11.038;2022-08-01T14:17:18;39.20;49.10
30381;DHT22;17169;50.966;11.038;2022-08-01T14:20:20;39.10;49.50
30381;DHT22;17169;50.966;11.038;2022-08-01T14:23:23;39.80;49.10
30381;DHT22;17169;50.966;11.038;2022-08-01T14:26:25;40.70;48.40
30381;DHT22;17169;50.966;11.038;2022-08-01T14:29:29;41.60;46.90
30381;DHT22;17169;50.966;11.038;2022-08-01T14:32:31;42.50;45.10
30381;DHT22;17169;50.966;11.038;2022-08-01T14:35:34;41.80;44.40
30381;DHT22;17169;50.966;11.038;2022-08-01T14:38:36;42.40;45.70
30381;DHT22;17169;50.966;11.038;2022-08-01T14:41:39;42.30;43.80
30381;DHT22;17169;50.966;11.038;2022-08-01T14:44:42;43.00;44.00
30381;DHT22;17169;50.966;11.038;2022-08-01T14:47:45;43.90;43.00
30381;DHT22;17169;50.966;11.038;2022-08-01T14:50:47;45.00;42.80
30381;DHT22;17169;50.966;11.038;2022-08-01T14:53:51;44.80;40.90
30381;DHT22;17169;50.966;11.038;2022-08-01T14:56:53;43.70;38.70
30381;DHT22;17169;50.966;11.038;2022-08-01T14:59:57;43.60;39.90
30381;DHT22;17169;50.966;11.038;2022-08-01T15:03:00;44.00;41.00
30381;DHT22;17169;50.966;11.038;2022-08-01T15:06:03;44.90;40.20
30381;DHT22;17169;50.966;11.038;2022-08-01T15:09:07;43.20;40.10
30381;DHT22;17169;50.966;11.038;2022-08-01T15:12:09;42.40;41.60
30381;DHT22;17169;50.966;11.038;2022-08-01T15:15:13;42.20;42.40
30381;DHT22;17169;50.966;11.038;2022-08-01T15:18:15;43.00;42.30
30381;DHT22;17169;50.966;11.038;2022-08-01T15:21:18;44.30;42.20
30381;DHT22;17169;50.966;11.038;2022-08-01T15:24:20;45.30;41.30
30381;DHT22;17169;50.966;11.038;2022-08-01T15:27:23;46.30;40.40
30381;DHT22;17169;50.966;11.038;2022-08-01T15:30:27;46.10;39.30
30381;DHT22;17169;50.966;11.038;2022-08-01T15:33:29;44.30;39.60
30381;DHT22;17169;50.966;11.038;2022-08-01T15:36:32;43.10;40.30
30381;DHT22;17169;50.966;11.038;2022-08-01T15:39:34;43.40;41.40
30381;DHT22;17169;50.966;11.038;2022-08-01T15:42:37;42.90;41.30
30381;DHT22;17169;50.966;11.038;2022-08-01T15:45:41;42.30;40.60
30381;DHT22;17169;50.966;11.038;2022-08-01T15:48:43;40.60;42.00
30381;DHT22;17169;50.966;11.038;2022-08-01T15:51:45;40.20;42.40
30381;DHT22;17169;50.966;11.038;2022-08-01T15:54:48;39.10;42.60
30381;DHT22;17169;50.966;11.038;2022-08-01T15:57:51;38.20;43.40
30381;DHT22;17169;50.966;11.038;2022-08-01T16:00:55;37.30;44.70
30381;DHT22;17169;50.966;11.038;2022-08-01T16:03:58;37.30;44.90
30381;DHT22;17169;50.966;11.038;2022-08-01T16:07:01;37.40;45.80
30381;DHT22;17169;50.966;11.038;2022-08-01T16:10:06;37.60;45.80
30381;DHT22;17169;50.966;11.038;2022-08-01T16:13:08;37.10;45.80
30381;DHT22;17169;50.966;11.038;2022-08-01T16:16:12;38.50;45.90
30381;DHT22;17169;50.966;11.038;2022-08-01T16:19:15;40.10;44.60
30381;DHT22;17169;50.966;11.038;2022-08-01T16:22:17;41.40;43.40
30381;DHT22;17169;50.966;11.038;2022-08-01T16:25:20;42.50;42.30
30381;DHT22;17169;50.966;11.038;2022-08-01T16:28:23;41.90;41.30
30381;DHT22;17169;50.966;11.038;2022-08-01T16:31:27;41.30;42.30
30381;DHT22;17169;50.966;11.038;2022-08-01T16:34:29;41.00;42.10
30381;DHT22;17169;50.966;11.038;2022-08-01T16:37:31;39.70;42.80
30381;DHT22;17169;50.966;11.038;2022-08-01T16:40:34;40.60;43.00
30381;DHT22;17169;50.966;11.038;2022-08-01T16:43:36;40.30;42.50
30381;DHT22;17169;50.966;11.038;2022-08-01T16:46:40;39.40;42.70
30381;DHT22;17169;50.966;11.038;2022-08-01T16:49:42;38.00;43.40
30381;DHT22;17169;50.966;11.038;2022-08-01T16:52:45;36.80;45.10
30381;DHT22;17169;50.966;11.038;2022-08-01T16:55:48;35.80;46.20
30381;DHT22;17169;50.966;11.038;2022-08-01T16:58:50;35.00;47.00
30381;DHT22;17169;50.966;11.038;2022-08-01T17:01:54;34.50;48.20
30381;DHT22;17169;50.966;11.038;2022-08-01T17:04:57;33.90;48.90
30381;DHT22;17169;50.966;11.038;2022-08-01T17:07:59;33.20;49.40
30381;DHT22;17169;50.966;11.038;2022-08-01T17:11:01;32.70;50.50
30381;DHT22;17169;50.966;11.038;2022-08-01T17:14:04;32.30;51.60
30381;DHT22;17169;50.966;11.038;2022-08-01T17:17:08;32.10;52.00
30381;DHT22;17169;50.966;11.038;2022-08-01T17:20:10;31.60;52.80
30381;DHT22;17169;50.966;11.038;2022-08-01T17:23:13;31.30;53.40
30381;DHT22;17169;50.966;11.038;2022-08-01T17:26:16;30.80;54.10
30381;DHT22;17169;50.966;11.038;2022-08-01T17:29:18;30.60;54.90
30381;DHT22;17169;50.966;11.038;2022-08-01T17:32:22;30.30;55.70
30381;DHT22;17169;50.966;11.038;2022-08-01T17:35:24;29.90;56.00
30381;DHT22;17169;50.966;11.038;2022-08-01T17:38:27;29.50;56.60
30381;DHT22;17169;50.966;11.038;2022-08-01T17:41:29;29.20;57.20
30381;DHT22;17169;50.966;11.038;2022-08-01T17:44:32;28.90;57.70
30381;DHT22;17169;50.966;11.038;2022-08-01T17:47:35;28.50;58.50
30381;DHT22;17169;50.966;11.038;2022-08-01T17:50:38;28.30;59.40
30381;DHT22;17169;50.966;11.038;2022-08-01T17:53:40;28.10;59.60
30381;DHT22;17169;50.966;11.038;2022-08-01T17:56:43;27.90;60.30
30381;DHT22;17169;50.966;11.038;2022-08-01T17:59:45;27.70;60.20
30381;DHT22;17169;50.966;11.038;2022-08-01T18:02:49;27.50;60.90
30381;DHT22;17169;50.966;11.038;2022-08-01T18:05:52;27.30;62.10
30381;DHT22;17169;50.966;11.038;2022-08-01T18:08:54;27.10;62.80
30381;DHT22;17169;50.966;11.038;2022-08-01T18:11:57;26.90;63.20
30381;DHT22;17169;50.966;11.038;2022-08-01T18:14:59;26.80;63.50
30381;DHT22;17169;50.966;11.038;2022-08-01T18:18:06;26.50;63.90
30381;DHT22;17169;50.966;11.038;2022-08-01T18:21:10;26.30;64.80
30381;DHT22;17169;50.966;11.038;2022-08-01T18:24:12;26.30;65.40
30381;DHT22;17169;50.966;11.038;2022-08-01T18:27:16;26.10;65.80
30381;DHT22;17169;50.966;11.038;2022-08-01T18:30:19;26.00;66.40
30381;DHT22;17169;50.966;11.038;2022-08-01T18:33:23;25.90;67.10
30381;DHT22;17169;50.966;11.038;2022-08-01T18:36:25;25.80;67.50
30381;DHT22;17169;50.966;11.038;2022-08-01T18:39:28;25.70;68.00
30381;DHT22;17169;50.966;11.038;2022-08-01T18:42:30;25.60;68.60
30381;DHT22;17169;50.966;11.038;2022-08-01T18:45:33;25.60;69.30
30381;DHT22;17169;50.966;11.038;2022-08-01T18:48:37;25.50;69.60
30381;DHT22;17169;50.966;11.038;2022-08-01T18:51:40;25.30;70.20
30381;DHT22;17169;50.966;11.038;2022-08-01T18:54:42;25.20;70.80
30381;DHT22;17169;50.966;11.038;2022-08-01T18:57:45;25.10;71.60
30381;DHT22;17169;50.966;11.038;2022-08-01T19:00:47;25.00;72.60
30381;DHT22;17169;50.966;11.038;2022-08-01T19:03:51;24.90;73.00
30381;DHT22;17169;50.966;11.038;2022-08-01T19:06:54;24.80;74.10
30381;DHT22;17169;50.966;11.038;2022-08-01T19:09:56;24.60;74.50